Time;durP1;ratioP1;P1;durP2;ratioP2;P2;SDS_P1;SDS_P2;PMS_P1;PMS_P2;Temp;Humidity;BMP_temperature;BMP_pressure;BME280_temperature;BME280_humidity;BME280_pressure;Samples;Min_cycle;Max_cycle;Signal;HPM_P1;HPM_P2
2023/08/08 00:00:13;;;;;;;2.00;1.30;;;;;;;13.94;67.78;95770.44;5091804;27;1180566;-80
2023/08/08 00:02:39;;;;;;;2.20;1.57;;;;;;;13.85;67.98;95767.00;5080081;28;20192;-82
2023/08/08 00:05:04;;;;;;;3.57;1.37;;;;;;;13.93;67.80;95760.97;5078349;28;20184;-81
2023/08/08 00:07:30;;;;;;;3.03;1.53;;;;;;;13.93;67.87;95760.16;5056189;28;20200;-81
2023/08/08 00:09:56;;;;;;;2.60;1.60;;;;;;;13.87;67.96;95762.47;5058911;28;20895;-82
2023/08/08 00:12:21;;;;;;;3.27;1.43;;;;;;;13.98;67.51;95761.31;5059275;28;20543;-81
2023/08/08 00:14:47;;;;;;;2.70;1.60;;;;;;;13.86;67.86;95759.97;5075803;28;20188;-81
2023/08/08 00:17:12;;;;;;;1.77;1.60;;;;;;;13.80;68.41;95764.09;5059441;28;20212;-82
2023/08/08 00:19:37;;;;;;;3.07;1.60;;;;;;;13.72;68.72;95760.66;5075882;28;20211;-81
2023/08/08 00:22:03;;;;;;;3.60;1.60;;;;;;;13.65;69.10;95757.84;5058547;28;20188;-82
2023/08/08 00:24:28;;;;;;;2.83;1.27;;;;;;;13.68;68.84;95765.34;5074632;28;20207;-82
2023/08/08 00:26:54;;;;;;;2.23;1.03;;;;;;;13.72;68.97;95756.25;5074067;28;20240;-82
2023/08/08 00:29:19;;;;;;;2.73;1.30;;;;;;;13.72;69.12;95756.25;5074639;28;20273;-82
2023/08/08 00:31:44;;;;;;;4.70;1.63;;;;;;;13.64;69.44;95753.63;5057190;28;20275;-82
2023/08/08 00:34:10;;;;;;;2.97;1.40;;;;;;;13.69;69.24;95753.13;5073410;28;20279;-82
2023/08/08 00:36:35;;;;;;;2.40;1.60;;;;;;;13.79;68.99;95751.19;5073155;28;20295;-82
2023/08/08 00:39:00;;;;;;;3.37;1.50;;;;;;;13.70;69.18;95747.75;5057618;28;20234;-82
2023/08/08 00:41:26;;;;;;;1.77;1.50;;;;;;;13.77;68.84;95751.34;5074785;28;20188;-82
2023/08/08 00:43:54;;;;;;;2.03;1.40;;;;;;;13.71;68.99;95749.41;5056773;28;20242;-82
2023/08/08 00:46:21;;;;;;;1.53;1.30;;;;;;;13.76;69.33;95744.47;5072383;28;20282;-82
2023/08/08 00:48:47;;;;;;;2.83;1.50;;;;;;;13.78;69.01;95739.09;5072026;28;20638;-82
2023/08/08 00:51:13;;;;;;;2.40;1.50;;;;;;;13.73;69.15;95746.63;5073110;28;20203;-82
2023/08/08 00:53:38;;;;;;;3.07;1.53;;;;;;;13.83;68.86;95744.66;5057339;28;20297;-82
2023/08/08 00:56:04;;;;;;;4.80;1.50;;;;;;;13.86;68.81;95747.75;5072747;28;20283;-82
2023/08/08 00:58:30;;;;;;;3.10;1.43;;;;;;;13.75;69.01;95745.47;5056074;28;20200;-81
2023/08/08 01:00:57;;;;;;;2.37;1.40;;;;;;;13.67;69.33;95742.84;5073345;28;20219;-82
2023/08/08 01:03:22;;;;;;;4.57;1.57;;;;;;;13.85;68.81;95743.50;5056395;28;20189;-81
2023/08/08 01:05:51;;;;;;;2.97;1.60;;;;;;;13.89;68.67;95741.41;5057399;28;20230;-82
2023/08/08 01:08:21;;;;;;;2.53;1.53;;;;;;;13.89;68.75;95747.44;5057475;28;20196;-81
2023/08/08 01:10:46;;;;;;;1.47;1.20;;;;;;;13.91;68.71;95743.84;5045674;28;20204;-82
2023/08/08 01:13:21;;;;;;;1.50;1.40;;;;;;;13.89;68.71;95737.00;5043992;28;20185;-82
2023/08/08 01:15:48;;;;;;;1.77;1.50;;;;;;;13.89;68.77;95737.00;5059793;28;20288;-81
2023/08/08 01:18:14;;;;;;;1.50;1.40;;;;;;;13.75;69.19;95735.03;5043868;28;20213;-82
2023/08/08 01:20:40;;;;;;;4.07;1.30;;;;;;;13.85;68.68;95729.63;5043909;28;20266;-81
2023/08/08 01:23:19;;;;;;;3.27;1.37;;;;;;;13.62;69.40;95729.47;5043447;28;20557;-81
2023/08/08 01:25:45;;;;;;;1.70;1.57;;;;;;;13.66;69.42;95730.78;5058546;28;20208;-81
2023/08/08 01:28:11;;;;;;;1.73;1.53;;;;;;;13.79;68.96;95725.91;5059897;28;20177;-82
2023/08/08 01:30:36;;;;;;;2.07;1.30;;;;;;;13.62;69.33;95729.47;5043325;28;20308;-82
2023/08/08 01:33:02;;;;;;;3.30;1.50;;;;;;;13.67;69.46;95729.81;5043221;28;20656;-81
2023/08/08 01:35:30;;;;;;;2.27;1.57;;;;;;;13.64;69.26;95727.53;5058900;28;20223;-82
2023/08/08 01:38:03;;;;;;;1.80;1.40;;;;;;;13.74;69.25;95725.56;5059481;28;20654;-81
2023/08/08 01:40:28;;;;;;;1.90;1.30;;;;;;;13.63;69.62;95731.13;5058100;28;20223;-82
2023/08/08 01:42:55;;;;;;;3.20;1.63;;;;;;;13.55;69.96;95724.09;5039678;28;20185;-82
2023/08/08 01:45:20;;;;;;;2.10;1.50;;;;;;;13.63;69.65;95730.31;5041422;28;20292;-82
2023/08/08 01:47:50;;;;;;;2.30;1.50;;;;;;;13.56;70.25;95730.13;5042077;28;20185;-82
2023/08/08 01:50:15;;;;;;;3.20;1.53;;;;;;;13.54;70.27;95727.69;5059247;28;20634;-82
2023/08/08 01:52:41;;;;;;;3.20;1.67;;;;;;;13.66;69.97;95724.75;5042131;28;20198;-82
2023/08/08 01:55:06;;;;;;;1.57;1.10;;;;;;;13.63;70.02;95725.91;5057730;28;20191;-81
2023/08/08 01:57:32;;;;;;;1.80;1.50;;;;;;;13.50;70.55;95721.13;5074753;28;20220;-81
2023/08/08 01:59:57;;;;;;;3.10;1.57;;;;;;;13.42;71.12;95721.13;5039658;28;20213;-81
2023/08/08 02:02:22;;;;;;;2.33;1.63;;;;;;;13.50;70.81;95725.53;5056978;28;20184;-82
2023/08/08 02:04:48;;;;;;;3.00;1.63;;;;;;;13.63;70.29;95723.28;5039878;28;20534;-82
2023/08/08 02:07:14;;;;;;;1.70;1.40;;;;;;;13.51;70.65;95722.75;5056388;28;20201;-82
2023/08/08 02:09:39;;;;;;;4.13;2.00;;;;;;;13.44;70.96;95721.81;5056383;28;20184;-82
2023/08/08 02:12:05;;;;;;;2.80;1.60;;;;;;;13.46;70.70;95719.84;5056313;28;20182;-81
2023/08/08 02:14:30;;;;;;;2.90;1.40;;;;;;;13.35;71.21;95716.72;5055917;28;20185;-81
2023/08/08 02:16:58;;;;;;;2.87;1.73;;;;;;;13.34;71.53;95715.91;5055750;28;20300;-81
2023/08/08 02:19:24;;;;;;;2.03;1.93;;;;;;;13.29;71.18;95710.34;5039379;28;20224;-81
2023/08/08 02:21:49;;;;;;;4.30;2.80;;;;;;;13.16;72.22;95710.75;5075333;28;20177;-83
2023/08/08 02:24:14;;;;;;;2.83;1.40;;;;;;;13.31;71.88;95703.19;5063914;28;20192;-82
2023/08/08 02:26:40;;;;;;;3.00;1.40;;;;;;;13.20;71.98;95704.31;5041690;28;20213;-81
2023/08/08 02:29:05;;;;;;;3.73;1.80;;;;;;;13.36;71.34;95703.53;5039155;28;20580;-82
2023/08/08 02:31:30;;;;;;;1.97;1.50;;;;;;;13.33;71.47;95703.81;5039098;28;20181;-81
2023/08/08 02:33:55;;;;;;;1.97;1.37;;;;;;;13.39;71.40;95707.59;5055301;28;20196;-81
2023/08/08 02:36:21;;;;;;;1.60;1.40;;;;;;;13.27;71.84;95707.91;5055293;28;20201;-81
2023/08/08 02:38:46;;;;;;;2.23;1.30;;;;;;;13.22;72.15;95706.75;5039150;28;20574;-81
2023/08/08 02:41:12;;;;;;;2.97;1.50;;;;;;;13.25;71.89;95694.22;5038851;28;20188;-82
2023/08/08 02:43:37;;;;;;;5.37;1.53;;;;;;;13.35;71.42;95704.50;5053695;28;20264;-81
2023/08/08 02:46:02;;;;;;;4.47;1.57;;;;;;;13.20;72.14;95698.28;5038440;28;20216;-82
2023/08/08 02:48:30;;;;;;;2.13;1.27;;;;;;;13.29;71.82;95694.72;5039384;28;20189;-81
2023/08/08 02:50:56;;;;;;;1.50;1.40;;;;;;;13.35;71.67;95701.09;5038839;28;20388;-81
2023/08/08 02:53:21;;;;;;;3.63;1.50;;;;;;;13.38;71.38;95700.75;5039362;28;20195;-82
2023/08/08 02:55:47;;;;;;;2.63;1.50;;;;;;;13.31;71.76;95698.78;5054475;28;20224;-81
2023/08/08 02:58:12;;;;;;;4.17;1.90;;;;;;;13.32;72.04;95704.81;5045529;28;20197;-80
2023/08/08 03:00:37;;;;;;;3.10;1.70;;;;;;;13.40;72.15;95704.00;5080229;28;20776;-81
2023/08/08 03:03:03;;;;;;;2.90;1.30;;;;;;;13.27;72.39;95702.69;5063631;28;20165;-81
2023/08/08 03:05:28;;;;;;;2.57;1.70;;;;;;;13.31;72.31;95701.38;5079916;28;20217;-81
2023/08/08 03:07:53;;;;;;;2.77;1.57;;;;;;;13.38;72.06;95701.56;5079476;28;20176;-82
2023/08/08 03:10:19;;;;;;;2.27;1.60;;;;;;;13.28;72.49;95703.50;5049937;28;20193;-82
2023/08/08 03:12:44;;;;;;;2.13;1.60;;;;;;;13.50;71.70;95705.47;5064843;28;20201;-81
2023/08/08 03:15:10;;;;;;;2.10;1.63;;;;;;;13.58;71.88;95712.50;5060270;28;20268;-81
2023/08/08 03:17:36;;;;;;;2.27;1.60;;;;;;;13.63;71.76;95697.19;5044232;28;20188;-81
2023/08/08 03:20:02;;;;;;;3.17;1.57;;;;;;;13.64;72.33;95698.81;5060597;28;20556;-81
2023/08/08 03:22:28;;;;;;;2.20;1.50;;;;;;;13.74;72.43;95701.25;5059906;28;20558;-81
2023/08/08 03:24:53;;;;;;;3.20;1.50;;;;;;;13.75;71.97;95698.50;5059398;28;20193;-81
2023/08/08 03:27:18;;;;;;;3.00;1.50;;;;;;;13.57;72.88;95696.03;5059956;28;20224;-81
2023/08/08 03:29:44;;;;;;;2.17;1.63;;;;;;;13.72;72.29;95698.00;5042976;28;20242;-81
2023/08/08 03:32:09;;;;;;;2.50;1.97;;;;;;;13.66;72.73;95694.25;5043115;28;20193;-81
2023/08/08 03:34:34;;;;;;;6.03;1.70;;;;;;;13.60;72.40;95705.31;5076767;28;20189;-81
2023/08/08 03:37:00;;;;;;;2.13;1.70;;;;;;;13.69;72.00;95698.31;5042374;28;20224;-81
2023/08/08 03:39:25;;;;;;;3.30;1.60;;;;;;;13.75;71.63;95701.09;5059649;28;20212;-81
2023/08/08 03:41:51;;;;;;;2.40;1.77;;;;;;;13.66;71.75;95698.66;5059086;28;20273;-81
2023/08/08 03:44:17;;;;;;;1.70;1.33;;;;;;;13.84;70.99;95704.53;5059395;28;20656;-81
2023/08/08 03:46:42;;;;;;;3.50;1.57;;;;;;;13.64;71.52;95698.81;5041390;28;20212;-81
2023/08/08 03:49:07;;;;;;;3.93;1.50;;;;;;;13.65;71.42;95697.03;5042160;28;20188;-81
2023/08/08 03:51:33;;;;;;;1.80;1.50;;;;;;;13.59;71.66;95698.47;5041616;28;20209;-81
2023/08/08 03:53:58;;;;;;;2.37;1.90;;;;;;;13.62;71.47;95698.19;5042205;28;20185;-81
2023/08/08 03:56:23;;;;;;;3.47;1.60;;;;;;;13.66;71.20;95696.84;5041373;28;20681;-81
2023/08/08 03:58:49;;;;;;;2.10;1.47;;;;;;;13.56;71.38;95706.63;5076092;28;20601;-80
2023/08/08 04:01:14;;;;;;;1.93;1.47;;;;;;;13.42;72.09;95695.03;5041754;28;20200;-81
2023/08/08 04:03:39;;;;;;;2.83;1.53;;;;;;;13.49;71.86;95698.63;5057727;28;20189;-81
2023/08/08 04:06:05;;;;;;;1.63;1.20;;;;;;;13.44;72.01;95697.50;5056652;28;20287;-82
2023/08/08 04:08:30;;;;;;;3.90;1.50;;;;;;;13.40;72.25;95701.41;5041372;28;20199;-81
2023/08/08 04:10:56;;;;;;;1.63;1.53;;;;;;;13.41;72.03;95700.41;5041028;28;20189;-81
2023/08/08 04:13:21;;;;;;;3.20;1.60;;;;;;;13.49;72.08;95703.84;5058045;28;20644;-81
2023/08/08 04:15:46;;;;;;;5.47;1.87;;;;;;;13.46;71.75;95701.56;5041409;28;20292;-81
2023/08/08 04:18:12;;;;;;;5.47;1.63;;;;;;;13.55;71.13;95697.19;5041960;28;20189;-81
2023/08/08 04:20:37;;;;;;;2.60;1.40;;;;;;;13.62;70.58;95703.38;5041938;28;20196;-81
2023/08/08 04:23:02;;;;;;;4.03;1.77;;;;;;;13.65;70.42;95703.06;5042128;28;20185;-81
2023/08/08 04:25:28;;;;;;;3.33;1.93;;;;;;;13.81;69.75;95702.25;5057264;28;20205;-81
2023/08/08 04:27:53;;;;;;;4.13;2.00;;;;;;;13.86;69.56;95700.75;5040823;28;20186;-81
2023/08/08 04:30:19;;;;;;;2.57;1.63;;;;;;;14.01;68.62;95702.72;5057559;28;20203;-80
2023/08/08 04:32:45;;;;;;;3.27;1.67;;;;;;;14.08;68.54;95695.88;5057672;28;20280;-81
2023/08/08 04:35:10;;;;;;;4.17;1.73;;;;;;;14.19;67.89;95695.50;5056088;28;20585;-81
2023/08/08 04:37:38;;;;;;;3.03;1.77;;;;;;;14.23;67.68;95701.25;5040756;28;20221;-81
2023/08/08 04:40:04;;;;;;;3.03;1.70;;;;;;;14.27;67.68;95703.34;5041401;28;20228;-81
2023/08/08 04:42:30;;;;;;;4.60;2.23;;;;;;;14.33;67.20;95702.69;5040632;28;20220;-81
2023/08/08 04:44:55;;;;;;;4.73;2.10;;;;;;;14.28;67.62;95697.13;5039662;28;20216;-81
2023/08/08 04:47:21;;;;;;;1.93;1.40;;;;;;;14.49;66.80;95695.78;5044336;28;20272;-81
2023/08/08 04:49:46;;;;;;;1.97;1.43;;;;;;;14.59;66.61;95699.88;5044367;28;20193;-81
2023/08/08 04:52:11;;;;;;;5.90;1.87;;;;;;;14.68;65.91;95700.66;5060752;28;20203;-81
2023/08/08 04:54:36;;;;;;;2.83;1.50;;;;;;;14.68;66.03;95701.47;5043948;28;20184;-81
2023/08/08 04:57:02;;;;;;;3.10;1.57;;;;;;;14.76;65.84;95712.88;5059983;28;20201;-81
2023/08/08 04:59:27;;;;;;;1.77;1.30;;;;;;;14.78;65.60;95711.72;5060376;28;20217;-81
2023/08/08 05:01:52;;;;;;;2.63;1.60;;;;;;;15.54;63.51;95715.38;5060482;28;20185;-81
2023/08/08 05:04:18;;;;;;;1.60;1.50;;;;;;;16.92;59.83;95716.78;5043259;28;20177;-81
2023/08/08 05:06:43;;;;;;;3.03;1.38;;;;;;;18.08;54.11;95720.22;5059084;28;20663;-81
2023/08/08 05:09:09;;;;;;;1.60;1.40;;;;;;;18.94;50.40;95726.91;5059923;28;20181;-81
2023/08/08 05:11:35;;;;;;;1.45;1.35;;;;;;;20.25;48.91;95724.00;5043117;28;20217;-81
2023/08/08 05:14:00;;;;;;;2.38;1.38;;;;;;;21.31;45.87;95723.84;5077556;28;20597;-81
2023/08/08 05:16:25;;;;;;;1.80;1.17;;;;;;;21.34;43.79;95724.22;5058877;28;20205;-81
2023/08/08 05:18:51;;;;;;;3.95;1.40;;;;;;;21.63;43.53;95727.31;5042492;28;20356;-81
2023/08/08 05:21:16;;;;;;;2.55;1.20;;;;;;;21.79;42.23;95726.81;5042296;28;20266;-81
2023/08/08 05:23:41;;;;;;;2.47;1.60;;;;;;;21.16;43.39;95729.34;5059426;28;20238;-81
2023/08/08 05:26:07;;;;;;;2.53;1.30;;;;;;;20.36;46.24;95720.75;5042377;28;20296;-81
2023/08/08 05:28:32;;;;;;;1.92;1.20;;;;;;;20.10;46.50;95718.94;5042541;28;20188;-81
2023/08/08 05:30:59;;;;;;;2.63;1.50;;;;;;;19.31;48.06;95716.94;5042401;28;20257;-81
2023/08/08 05:33:24;;;;;;;1.65;1.33;;;;;;;18.27;50.93;95716.94;5059796;28;20188;-81
2023/08/08 05:35:49;;;;;;;4.03;1.60;;;;;;;17.81;52.10;95714.75;5058577;28;20201;-81
2023/08/08 05:38:14;;;;;;;2.45;1.65;;;;;;;17.24;54.44;95707.69;5058630;28;20309;-81
2023/08/08 05:40:40;;;;;;;1.80;1.42;;;;;;;16.84;56.11;95705.56;5042255;28;20565;-81
2023/08/08 05:43:05;;;;;;;3.17;1.33;;;;;;;16.45;57.61;95705.81;5059250;28;20193;-81
2023/08/08 05:45:31;;;;;;;2.60;1.52;;;;;;;16.44;58.31;95705.00;5041028;28;20613;-81
2023/08/08 05:47:57;;;;;;;3.05;1.30;;;;;;;16.31;58.51;95700.38;5059579;28;20232;-81
2023/08/08 05:50:22;;;;;;;3.58;1.30;;;;;;;16.30;59.54;95700.56;5042673;28;20189;-81
2023/08/08 05:52:47;;;;;;;2.03;1.65;;;;;;;16.46;58.52;95692.53;5076600;28;20189;-81
2023/08/08 05:55:13;;;;;;;2.75;1.70;;;;;;;16.59;58.53;95697.94;5041782;28;20624;-81
2023/08/08 05:57:38;;;;;;;1.85;1.25;;;;;;;16.78;57.79;95701.03;5042922;28;20218;-80
2023/08/08 06:00:05;;;;;;;1.90;1.40;;;;;;;17.45;56.18;95703.44;5059720;28;20213;-81
2023/08/08 06:02:30;;;;;;;2.58;1.40;;;;;;;18.46;52.86;95712.81;5078033;28;20215;-82
2023/08/08 06:04:56;;;;;;;3.03;1.48;;;;;;;19.56;49.03;95714.59;5058438;28;21267;-82
2023/08/08 06:07:21;;;;;;;2.33;1.42;;;;;;;20.86;46.74;95721.13;5059541;28;20321;-82
2023/08/08 06:09:46;;;;;;;2.92;1.73;;;;;;;22.14;43.64;95729.84;5058899;28;20185;-81
2023/08/08 06:12:12;;;;;;;3.75;1.30;;;;;;;22.83;41.10;95718.25;5057500;28;20189;-81
2023/08/08 06:14:37;;;;;;;3.08;1.30;;;;;;;23.27;40.68;95726.97;5041950;28;20181;-81
2023/08/08 06:17:02;;;;;;;6.53;1.10;;;;;;;23.95;37.86;95728.53;5058139;28;20287;-82
2023/08/08 06:19:28;;;;;;;3.03;1.50;;;;;;;24.28;37.33;95733.31;5058627;28;20212;-81
2023/08/08 06:21:53;;;;;;;2.15;1.30;;;;;;;24.46;36.65;95719.97;5042101;28;20188;-81
2023/08/08 06:24:18;;;;;;;4.00;1.77;;;;;;;24.54;36.53;95722.28;5057304;28;20181;-81
2023/08/08 06:26:44;;;;;;;2.15;1.48;;;;;;;23.14;37.99;95725.25;5039226;28;20208;-81
2023/08/08 06:29:09;;;;;;;1.88;1.20;;;;;;;23.09;39.35;95726.97;5036958;28;20672;-82
2023/08/08 06:31:34;;;;;;;1.70;1.20;;;;;;;21.52;42.04;95718.22;5039695;28;20197;-79
2023/08/08 06:34:00;;;;;;;2.17;1.20;;;;;;;21.59;41.60;95716.38;5039612;28;20185;-83
2023/08/08 06:36:25;;;;;;;2.90;1.27;;;;;;;22.85;39.73;95716.22;5055081;28;20484;-80
2023/08/08 06:38:50;;;;;;;1.17;0.93;;;;;;;23.89;38.02;95721.47;5055641;28;20675;-81
2023/08/08 06:41:16;;;;;;;2.00;1.20;;;;;;;24.38;36.66;95724.81;5039446;28;20200;-81
2023/08/08 06:43:41;;;;;;;1.63;1.20;;;;;;;24.70;36.24;95720.00;5056583;28;20184;-82
2023/08/08 06:46:06;;;;;;;1.67;1.20;;;;;;;24.52;36.52;95723.56;5038673;28;20694;-82
2023/08/08 06:48:32;;;;;;;1.73;1.17;;;;;;;24.26;36.56;95728.25;5056216;28;20181;-82
2023/08/08 06:50:57;;;;;;;3.15;1.80;;;;;;;23.71;37.19;95723.16;5039565;28;20184;-82
2023/08/08 06:53:22;;;;;;;2.17;1.25;;;;;;;23.79;37.54;95729.19;5055909;28;20189;-82
2023/08/08 06:55:48;;;;;;;1.23;1.10;;;;;;;24.34;37.01;95724.47;5054664;28;20232;-82
2023/08/08 06:58:13;;;;;;;3.15;1.23;;;;;;;23.89;37.41;95724.13;5038574;28;20226;-82
2023/08/08 07:00:39;;;;;;;1.85;1.10;;;;;;;23.96;37.60;95728.31;5055275;28;20197;-82
2023/08/08 07:03:05;;;;;;;3.67;0.90;;;;;;;24.54;35.99;95724.94;5055237;28;20219;-82
2023/08/08 07:05:30;;;;;;;1.10;1.00;;;;;;;24.83;35.10;95725.06;5037140;28;20197;-82
2023/08/08 07:07:55;;;;;;;1.65;1.00;;;;;;;23.85;36.70;95726.41;5037094;28;20196;-82
2023/08/08 07:10:21;;;;;;;1.52;1.08;;;;;;;24.09;37.14;95731.78;5072199;28;20178;-82
2023/08/08 07:12:46;;;;;;;1.30;0.90;;;;;;;23.48;36.46;95738.09;5054239;28;20193;-81
2023/08/08 07:15:12;;;;;;;2.13;1.23;;;;;;;23.68;36.71;95723.59;5051655;28;20582;-80
2023/08/08 07:17:37;;;;;;;1.83;1.10;;;;;;;24.20;36.15;95729.16;5055438;28;20276;-80
2023/08/08 07:20:03;;;;;;;0.98;0.98;;;;;;;23.27;36.38;95726.16;5055537;28;20244;-81
2023/08/08 07:22:29;;;;;;;2.17;1.20;;;;;;;23.59;36.13;95721.44;5072912;28;20185;-79
2023/08/08 07:24:54;;;;;;;1.92;1.08;;;;;;;23.73;36.31;95722.91;5053021;28;20181;-80
2023/08/08 07:27:19;;;;;;;1.52;1.00;;;;;;;22.91;37.44;95719.03;5035679;28;20639;-84
2023/08/08 07:29:45;;;;;;;1.38;1.08;;;;;;;22.43;38.38;95728.41;5037078;28;20209;-82
2023/08/08 07:32:10;;;;;;;1.83;1.30;;;;;;;20.89;40.43;95712.78;5037039;28;20181;-83
2023/08/08 07:34:36;;;;;;;3.97;1.70;;;;;;;21.52;39.74;95707.66;5053526;28;20615;-83
2023/08/08 07:37:02;;;;;;;2.10;1.20;;;;;;;21.65;39.98;95718.19;5037580;28;20204;-83
2023/08/08 07:39:28;;;;;;;2.15;1.30;;;;;;;20.80;40.99;95714.03;5054494;28;20277;-84
2023/08/08 07:41:53;;;;;;;2.13;1.17;;;;;;;21.15;40.91;95723.25;5037548;28;20268;-84
2023/08/08 07:44:19;;;;;;;1.95;1.33;;;;;;;20.40;41.84;95711.41;5054856;28;20173;-83
2023/08/08 07:46:44;;;;;;;3.08;1.27;;;;;;;20.40;42.69;95706.13;5037716;28;20655;-84
2023/08/08 07:49:09;;;;;;;2.03;1.20;;;;;;;20.11;43.54;95710.00;5037993;28;20591;-84
2023/08/08 07:51:35;;;;;;;1.98;1.00;;;;;;;20.01;44.62;95706.97;5037407;28;20188;-82
2023/08/08 07:54:01;;;;;;;1.83;0.90;;;;;;;20.00;45.08;95705.34;5054089;28;20180;-83
2023/08/08 07:56:26;;;;;;;1.55;1.25;;;;;;;19.22;45.98;95708.41;5036137;28;20212;-82
2023/08/08 07:58:51;;;;;;;2.33;1.20;;;;;;;18.73;47.62;95708.59;5054184;28;20213;-83
2023/08/08 08:01:18;;;;;;;2.58;1.25;;;;;;;18.98;47.13;95715.97;5054612;28;20195;-82
2023/08/08 08:03:43;;;;;;;3.10;1.17;;;;;;;19.62;46.37;95715.66;5035982;28;20280;-81
2023/08/08 08:06:09;;;;;;;3.10;1.38;;;;;;;19.71;46.08;95714.44;5051904;28;20669;-82
2023/08/08 08:08:34;;;;;;;2.60;1.40;;;;;;;19.83;46.08;95710.19;5053197;28;20192;-82
2023/08/08 08:11:03;;;;;;;3.05;1.40;;;;;;;19.73;45.50;95707.97;5036073;28;20185;-82
2023/08/08 08:13:29;;;;;;;3.13;1.30;;;;;;;19.76;45.24;95710.19;5036038;28;20189;-82
2023/08/08 08:15:54;;;;;;;2.63;1.35;;;;;;;19.94;45.02;95706.97;5052020;28;20208;-82
2023/08/08 08:18:20;;;;;;;2.22;1.38;;;;;;;20.08;44.19;95707.78;5036182;28;20592;-82
2023/08/08 08:20:45;;;;;;;1.80;1.20;;;;;;;19.71;45.27;95706.53;5055244;28;20189;-82
2023/08/08 08:23:11;;;;;;;2.88;1.20;;;;;;;19.40;46.24;95699.94;5038137;28;20177;-82
2023/08/08 08:25:36;;;;;;;4.53;1.38;;;;;;;19.20;46.29;95699.06;5056632;28;20839;-82
2023/08/08 08:28:02;;;;;;;2.78;1.48;;;;;;;19.56;45.61;95704.06;5039976;28;20234;-82
2023/08/08 08:30:27;;;;;;;2.35;1.13;;;;;;;19.59;45.00;95697.59;5056747;28;20177;-82
2023/08/08 08:32:52;;;;;;;2.50;1.30;;;;;;;19.36;44.61;95704.00;5057240;28;20180;-81
2023/08/08 08:35:19;;;;;;;3.03;1.38;;;;;;;19.63;44.96;95698.81;5056610;28;20192;-81
2023/08/08 08:37:44;;;;;;;2.50;1.30;;;;;;;19.97;44.88;95703.94;5040605;28;20181;-82
2023/08/08 08:40:10;;;;;;;4.72;1.30;;;;;;;20.28;43.73;95697.22;5056946;28;20197;-83
2023/08/08 08:42:36;;;;;;;3.17;1.25;;;;;;;20.30;43.78;95695.19;5056382;28;20666;-82
2023/08/08 08:45:06;;;;;;;1.70;0.93;;;;;;;20.20;44.69;95689.53;5038964;28;20181;-82
2023/08/08 08:47:33;;;;;;;2.92;1.33;;;;;;;19.81;44.86;95699.06;5040774;28;20569;-82
2023/08/08 08:49:58;;;;;;;1.80;1.20;;;;;;;19.36;44.55;95690.03;5057324;28;20184;-82
2023/08/08 08:52:24;;;;;;;2.85;1.50;;;;;;;20.01;44.81;95699.88;5040361;28;20189;-82
2023/08/08 08:54:53;;;;;;;3.08;1.35;;;;;;;19.49;45.40;95695.31;5056654;28;20207;-82
2023/08/08 08:57:21;;;;;;;1.30;1.20;;;;;;;19.48;45.33;95697.13;5039039;28;20221;-82
2023/08/08 08:59:46;;;;;;;3.55;1.40;;;;;;;19.92;44.81;95692.38;5056296;28;20217;-82
2023/08/08 09:02:11;;;;;;;2.45;1.52;;;;;;;19.50;45.57;95694.28;5056898;28;20202;-83
2023/08/08 09:04:37;;;;;;;2.63;1.40;;;;;;;20.06;44.72;95694.81;5038854;28;20196;-82
2023/08/08 09:07:05;;;;;;;2.00;1.10;;;;;;;20.45;43.41;95693.19;5039150;28;20577;-82
2023/08/08 09:09:32;;;;;;;2.47;1.60;;;;;;;20.19;43.52;95693.97;5039305;28;20188;-82
2023/08/08 09:11:57;;;;;;;2.47;1.27;;;;;;;19.97;43.80;95692.59;5055678;28;20561;-82
2023/08/08 09:14:25;;;;;;;3.15;1.20;;;;;;;19.91;43.44;95696.81;5039343;28;20192;-82
2023/08/08 09:16:54;;;;;;;2.72;1.30;;;;;;;19.68;44.01;95685.84;5039358;28;20675;-82
2023/08/08 09:19:20;;;;;;;2.38;1.50;;;;;;;19.32;44.74;95675.63;5074837;28;20224;-82
2023/08/08 09:21:50;;;;;;;3.20;1.42;;;;;;;19.90;43.07;95679.41;5039221;28;20185;-82
2023/08/08 09:24:15;;;;;;;1.42;1.00;;;;;;;19.57;43.70;95694.34;5055739;28;20181;-82
2023/08/08 09:26:42;;;;;;;4.47;1.42;;;;;;;19.51;44.45;95686.19;5038231;28;20209;-82
2023/08/08 09:29:08;;;;;;;2.83;1.30;;;;;;;20.05;43.61;95689.72;5056078;28;20173;-83
2023/08/08 09:31:34;;;;;;;4.32;1.45;;;;;;;19.71;43.74;95690.72;5039574;28;20181;-83
2023/08/08 09:34:01;;;;;;;2.90;1.52;;;;;;;19.71;44.15;95674.94;5039746;28;20208;-82
2023/08/08 09:36:26;;;;;;;2.08;1.33;;;;;;;19.44;44.90;95664.31;5055468;28;20192;-83
2023/08/08 09:38:53;;;;;;;3.75;1.52;;;;;;;20.31;43.58;95665.16;5039071;28;20624;-83
2023/08/08 09:41:20;;;;;;;2.22;1.50;;;;;;;20.22;43.16;95676.94;5055617;28;20185;-82
2023/08/08 09:43:45;;;;;;;4.00;1.25;;;;;;;20.20;43.17;95663.97;5055223;28;20180;-82
2023/08/08 09:46:11;;;;;;;2.30;1.42;;;;;;;20.43;43.47;95670.63;5038190;28;20617;-84
2023/08/08 09:48:38;;;;;;;2.33;1.55;;;;;;;20.14;42.81;95664.78;5039066;28;20192;-82
2023/08/08 09:51:05;;;;;;;2.40;1.23;;;;;;;20.41;43.22;95676.13;5056031;28;20177;-83
2023/08/08 09:53:31;;;;;;;2.22;1.20;;;;;;;19.86;42.71;95662.34;5039078;28;20217;-82
2023/08/08 09:55:56;;;;;;;2.83;1.45;;;;;;;20.08;42.44;95661.16;5055118;28;20239;-83
2023/08/08 09:58:22;;;;;;;1.75;1.23;;;;;;;20.60;42.01;95670.03;5054669;28;20239;-82
2023/08/08 10:00:49;;;;;;;1.88;1.20;;;;;;;20.74;42.48;95662.88;5038987;28;20197;-83
2023/08/08 10:03:16;;;;;;;2.13;1.20;;;;;;;20.91;41.54;95674.59;5056685;28;20181;-83
2023/08/08 10:05:42;;;;;;;2.78;1.67;;;;;;;20.81;41.53;95670.78;5055298;28;20201;-83
2023/08/08 10:08:07;;;;;;;2.90;1.30;;;;;;;20.83;41.17;95663.44;5054408;28;20575;-83
2023/08/08 10:10:33;;;;;;;2.67;1.38;;;;;;;21.20;40.30;95669.78;5065619;28;20181;-83
2023/08/08 10:12:59;;;;;;;2.50;1.50;;;;;;;21.27;40.85;95660.03;5055738;28;20288;-84
2023/08/08 10:15:27;;;;;;;2.55;1.35;;;;;;;21.13;40.33;95664.56;5037074;28;20654;-83
2023/08/08 10:17:55;;;;;;;1.23;1.10;;;;;;;21.07;40.77;95669.88;5054350;28;20650;-83
2023/08/08 10:20:21;;;;;;;4.18;1.67;;;;;;;20.56;41.47;95663.53;5033554;28;20207;-84
2023/08/08 10:22:47;;;;;;;2.90;1.27;;;;;;;21.22;41.18;95662.50;5041613;28;20181;-82
2023/08/08 10:25:43;;;;;;;3.63;1.80;;;;;;;20.71;42.45;95660.66;5037706;28;20280;-82
2023/08/08 10:28:10;;;;;;;3.30;1.45;;;;;;;21.23;41.46;95661.47;5071116;28;20285;-82
2023/08/08 10:30:50;;;;;;;3.15;1.23;;;;;;;21.75;41.41;95667.50;5033406;28;20178;-82
2023/08/08 10:33:17;;;;;;;2.55;1.35;;;;;;;21.38;40.73;95664.69;5047427;28;20612;-82
2023/08/08 10:35:55;;;;;;;1.90;1.30;;;;;;;21.33;40.77;95667.13;5033310;28;20255;-82
2023/08/08 10:38:22;;;;;;;4.32;1.10;;;;;;;21.77;40.64;95663.59;5036914;28;20185;-82
2023/08/08 10:40:47;;;;;;;2.10;1.38;;;;;;;21.94;40.20;95663.06;5054913;28;20253;-86
2023/08/08 10:43:13;;;;;;;2.60;1.20;;;;;;;21.37;40.69;95665.66;5029914;28;20209;-89
2023/08/08 10:45:42;;;;;;;2.22;1.25;;;;;;;21.58;41.69;95667.19;5037692;28;20299;-88
2023/08/08 10:48:09;;;;;;;3.53;1.27;;;;;;;22.16;40.94;95660.88;5043538;28;20344;-87
2023/08/08 10:50:38;;;;;;;2.45;1.40;;;;;;;21.83;37.76;95664.59;5035527;28;20174;-87
2023/08/08 10:53:03;;;;;;;3.38;1.38;;;;;;;21.81;39.93;95671.09;5050343;28;20189;-81
2023/08/08 10:55:34;;;;;;;2.50;1.20;;;;;;;22.21;40.64;95671.63;5050744;28;20281;-81
2023/08/08 10:58:02;;;;;;;2.78;1.38;;;;;;;22.03;38.30;95664.44;5046473;28;20646;-81
2023/08/08 11:00:30;;;;;;;2.47;1.42;;;;;;;22.58;37.53;95668.00;5053462;28;20221;-81
2023/08/08 11:02:56;;;;;;;2.30;1.40;;;;;;;22.61;38.64;95672.84;5037326;28;20185;-81
2023/08/08 11:05:23;;;;;;;1.30;1.17;;;;;;;22.22;37.27;95662.66;5036566;28;20173;-81
2023/08/08 11:07:48;;;;;;;1.42;1.10;;;;;;;22.06;38.18;95664.78;5041155;28;20193;-81
2023/08/08 11:10:14;;;;;;;1.63;1.30;;;;;;;22.07;40.36;95660.34;5038293;28;20180;-81
2023/08/08 11:12:39;;;;;;;1.52;1.35;;;;;;;21.24;40.47;95670.19;5038141;28;20207;-81
2023/08/08 11:15:05;;;;;;;1.88;1.40;;;;;;;21.21;41.05;95660.88;5054396;28;20280;-81
2023/08/08 11:17:32;;;;;;;1.85;1.30;;;;;;;21.27;40.25;95660.03;5070676;28;20428;-81
2023/08/08 11:19:57;;;;;;;3.08;1.38;;;;;;;21.40;39.50;95675.84;5038110;28;20230;-81
2023/08/08 11:22:23;;;;;;;3.47;1.38;;;;;;;21.37;38.72;95664.84;5070284;28;20189;-81
2023/08/08 11:24:49;;;;;;;1.75;1.20;;;;;;;21.52;38.47;95659.28;5037476;28;20650;-81
2023/08/08 11:27:15;;;;;;;2.67;1.58;;;;;;;21.89;38.85;95654.97;5035560;28;20728;-81